Latest Weather Observations for Coondewanna

IDW60801

Issued at 9:33 pm WST Friday 29 July 2016 (issued every 30 minutes, with the page automatically refreshed every 10 minutes)

About weather observations | Map of weather stations | Latest weather observations for WA | Other Formats
Station Details ID: 505051 Name: COONDEWANNA Lat: -22.96 Lon: 118.81 Height: 697.63 m
Data from the previous 72 hours. | See also: Recent months for locations in Western Australia
Date/Time
WST
Temp
°C
App
Temp
°C
Dew
Point
°C
Rel
Hum
%
Delta-T
°C
Wind Press
QNH
hPa
Press
MSL
hPa
Rain since
9am
mm
Dir  Spd
km/h
Gust
km/h
Spd
kts
Gust
kts
29/09:30pm 13.2 10.7 3.6 52 4.5 ENE 6 7 3 4 1022.4 1021.0 0.0
29/09:00pm 14.3 11.4 1.6 42 5.7 ENE 6 7 3 4 1022.3 1020.9 0.0
29/08:30pm 16.7 13.5 0.8 34 7.2 ENE 7 9 4 5 1022.1 1020.7 0.0
29/08:00pm 16.3 12.6 0.0 33 7.2 ENE 9 9 5 5 1021.8 1020.4 0.0
29/07:30pm 17.8 14.0 -0.5 29 8.2 ENE 9 9 5 5 1021.6 1020.1 0.0
29/07:00pm 17.8 14.9 1.7 34 7.5 ENE 6 7 3 4 1021.3 1019.8 0.0
29/06:30pm 19.7 16.1 -2.0 23 9.5 E 7 9 4 5 1021.0 1019.6 0.0
29/06:00pm 21.9 18.2 -2.7 19 10.8 E 7 7 4 4 1020.6 1019.2 0.0
29/05:30pm 24.0 19.7 -5.1 14 12.5 E 9 11 5 6 1020.1 1018.6 0.0
29/05:00pm 24.8 20.4 -5.5 13 13.0 E 9 13 5 7 1020.0 1018.5 0.0
29/04:30pm 24.9 20.5 -5.4 13 13.1 ESE 9 11 5 6 1020.0 1018.5 0.0
29/04:00pm 25.4 21.1 -5.0 13 13.2 ENE 9 13 5 7 1020.0 1018.5 0.0
29/03:30pm 25.3 20.7 -4.1 14 13.0 ESE 11 17 6 9 1019.8 1018.3 0.0
29/03:00pm 25.3 19.6 -4.1 14 13.0 E 17 22 9 12 1019.8 1018.3 0.0
29/02:30pm 25.3 20.4 -3.2 15 12.8 ENE 13 20 7 11 1019.8 1018.3 0.0
29/02:00pm 25.4 20.2 -3.1 15 12.8 E 15 22 8 12 1020.1 1018.6 0.0
29/01:30pm 24.2 19.2 -4.0 15 12.4 NE 13 20 7 11 1020.3 1018.8 0.0
29/01:00pm 24.4 19.4 -3.9 15 12.5 E 13 20 7 11 1020.9 1019.5 0.0
29/12:30pm 24.0 18.4 -3.3 16 12.1 ENE 17 24 9 13 1021.1 1019.7 0.0
29/12:00pm 23.8 18.0 -4.4 15 12.2 ENE 17 24 9 13 1021.8 1020.4 0.0
29/11:30am 23.1 17.3 -4.9 15 12.0 ENE 17 26 9 14 1022.3 1020.9 0.0
29/11:00am 22.8 16.5 -4.3 16 11.7 ENE 20 26 11 14 1022.9 1021.5 0.0
29/10:30am 22.0 15.9 -4.1 17 11.2 E 19 24 10 13 1023.4 1022.0 0.0
29/10:00am 21.6 15.6 -3.0 19 10.7 E 19 24 10 13 1023.7 1022.3 0.0
29/09:30am 20.8 15.0 -4.4 18 10.7 ENE 17 24 9 13 1023.8 1022.4 0.0
29/09:00am 19.6 15.8 -0.9 25 9.2 ENE 9 13 5 7 1023.8 1022.4 0.0
29/08:30am 16.6 14.6 -0.1 32 7.4 CALM 0 0 0 0 1023.7 1022.3 0.0
29/08:00am 12.9 11.7 4.8 58 3.9 CALM 0 0 0 0 1023.7 1022.3 0.0
29/07:30am 10.3 9.0 4.2 66 2.8 CALM 0 0 0 0 1023.5 1022.1 0.0
29/07:00am 8.3 7.1 4.5 77 1.7 CALM 0 0 0 0 1023.1 1021.7 0.0
29/06:30am 7.8 5.4 4.2 78 1.6 ENE 6 6 3 3 1022.6 1021.2 0.0
29/06:00am 8.5 7.3 4.7 77 1.7 CALM 0 0 0 0 1022.3 1020.9 0.0
29/05:30am 8.4 7.2 4.6 77 1.7 CALM 0 0 0 0 1022.2 1020.8 0.0
29/05:00am 9.2 8.0 4.8 74 2.0 CALM 0 0 0 0 1022.0 1020.6 0.0
29/04:30am 10.1 8.7 3.6 64 3.0 CALM 0 0 0 0 1021.8 1020.4 0.0
29/04:00am 10.0 7.7 5.0 71 2.3 ENE 6 6 3 3 1021.9 1020.5 0.0
29/03:30am 10.3 8.4 5.1 70 2.5 ENE 4 6 2 3 1022.0 1020.6 0.0
29/03:00am 11.4 10.4 5.5 67 2.8 CALM 0 0 0 0 1021.8 1020.4 0.0
29/02:30am 10.5 9.4 4.9 68 2.6 CALM 0 0 0 0 1022.0 1020.6 0.0
29/02:00am 11.3 10.0 4.3 62 3.3 CALM 0 0 0 0 1022.0 1020.6 0.0
29/01:30am 11.7 10.5 4.4 61 3.4 CALM 0 0 0 0 1022.2 1020.8 0.0
29/01:00am 11.5 9.4 4.0 60 3.5 ENE 4 7 2 4 1022.4 1021.0 0.0
29/12:30am 12.8 11.6 4.5 57 3.9 CALM 0 0 0 0 1022.4 1021.0 0.0
29/12:00am 13.3 11.3 2.5 48 4.9 ENE 2 6 1 3 1022.4 1021.0 0.0
 
Date/Time
WST
Temp
°C
App
Temp
°C
Dew
Point
°C
Rel
Hum
%
Delta-T
°C
Wind Press
QNH
hPa
Press
MSL
hPa
Rain since
9am
mm
Dir  Spd
km/h
Gust
km/h
Spd
kts
Gust
kts
28/11:30pm 14.4 11.7 2.6 45 5.5 ENE 6 7 3 4 1022.6 1021.2 0.0
28/11:00pm 15.8 12.4 1.9 39 6.4 E 9 13 5 7 1022.7 1021.3 0.0
28/10:30pm 16.8 12.2 1.7 36 7.0 ESE 15 17 8 9 1023.0 1021.6 0.0
28/10:00pm 17.1 12.9 1.9 36 7.1 ESE 13 15 7 8 1023.1 1021.7 0.0
28/09:30pm 17.2 14.1 3.5 40 6.6 E 9 11 5 6 1023.1 1021.7 0.0
28/09:00pm 18.6 15.7 2.4 34 7.7 E 7 9 4 5 1023.1 1021.7 0.0
28/08:30pm 19.2 16.4 3.0 34 7.8 E 7 9 4 5 1023.2 1021.8 0.0
28/08:00pm 19.0 16.3 3.6 36 7.5 E 7 7 4 4 1023.0 1021.6 0.0
28/07:30pm 18.9 16.2 3.9 37 7.4 E 7 9 4 5 1022.9 1021.5 0.0
28/07:00pm 19.8 16.5 2.6 32 8.3 E 9 9 5 5 1022.6 1021.2 0.0
28/06:30pm 20.1 16.8 2.5 31 8.5 E 9 11 5 6 1022.4 1021.0 0.0
28/06:00pm 21.6 18.2 1.8 27 9.5 E 9 11 5 6 1022.0 1020.6 0.0
28/05:30pm 23.4 20.3 1.1 23 10.7 ENE 7 11 4 6 1021.8 1020.4 0.0
28/05:00pm 24.4 20.4 0.7 21 11.4 ESE 11 15 6 8 1021.5 1020.0 0.0
28/04:30pm 24.6 21.0 0.8 21 11.5 E 9 13 5 7 1021.5 1020.0 0.0
28/04:00pm 24.6 20.2 0.2 20 11.6 E 13 19 7 10 1021.3 1019.8 0.0
28/03:30pm 25.0 20.2 0.5 20 11.8 ESE 15 20 8 11 1021.1 1019.7 0.0
28/03:00pm 24.9 20.0 -0.3 19 11.9 E 15 26 8 14 1021.0 1019.6 0.0
28/02:30pm 25.0 19.7 -0.9 18 12.1 E 17 26 9 14 1021.1 1019.7 0.0
28/02:00pm 24.3 18.5 -1.5 18 11.9 E 19 28 10 15 1021.4 1019.9 0.0
28/01:30pm 24.0 18.9 -1.8 18 11.8 E 15 26 8 14 1021.6 1020.1 0.0
28/01:00pm 24.1 18.7 -1.7 18 11.8 E 17 24 9 13 1021.9 1020.5 0.0
28/12:30pm 24.0 18.8 -2.5 17 12.0 E 15 24 8 13 1022.5 1021.1 0.0
28/12:00pm 23.2 17.9 -4.0 16 11.8 ENE 15 22 8 12 1023.2 1021.8 0.0
28/11:30am 22.5 17.6 -3.0 18 11.3 ENE 13 20 7 11 1023.7 1022.3 0.0
28/11:00am 21.7 15.9 -4.4 17 11.1 E 17 24 9 13 1024.2 1022.9 0.0
28/10:30am 20.6 14.2 -5.3 17 10.8 ENE 20 28 11 15 1024.6 1023.2 0.0
28/10:00am 20.1 13.2 -5.7 17 10.5 ENE 22 28 12 15 1025.1 1023.7 0.0
28/09:30am 18.9 12.5 -5.2 19 9.9 ENE 20 28 11 15 1025.4 1024.1 0.0
28/09:00am 18.1 11.7 -4.5 21 9.3 ENE 20 30 11 16 1025.4 1024.1 0.0
28/08:30am 17.4 11.1 -3.9 23 8.8 ENE 20 28 11 15 1025.4 1024.1 0.0
28/08:00am 15.1 11.5 -1.9 31 7.1 ENE 7 11 4 6 1025.3 1023.9 0.0
28/07:30am 11.1 8.2 -1.3 42 5.1 NNW 4 7 2 4 1025.0 1023.6 0.0
28/07:00am 8.9 5.8 0.1 54 3.6 NNW 6 7 3 4 1024.6 1023.2 0.0
28/06:30am 9.0 7.2 1.0 57 3.4 CALM 0 0 0 0 1024.2 1022.9 0.0
28/06:00am 8.5 5.8 0.5 57 3.3 NNW 4 7 2 4 1023.9 1022.5 0.0
28/05:30am 8.0 5.1 1.2 62 2.9 NNW 6 7 3 4 1023.6 1022.2 0.0
28/05:00am 8.6 6.8 1.5 61 3.0 CALM 0 0 0 0 1023.4 1022.0 0.0
28/04:30am 8.5 6.4 1.4 61 3.0 E 2 6 1 3 1023.4 1022.0 0.0
28/04:00am 10.6 7.4 -0.2 47 4.5 E 6 7 3 4 1023.3 1021.9 0.0
28/03:30am 10.3 8.5 0.9 52 4.0 CALM 0 0 0 0 1023.4 1022.0 0.0
28/03:00am 10.8 7.9 1.4 52 4.1 NNE 6 7 3 4 1023.4 1022.0 0.0
28/02:30am 14.5 10.2 -1.6 33 6.8 ENE 11 15 6 8 1023.4 1022.0 0.0
28/02:00am 14.7 10.2 -0.6 35 6.6 ENE 13 19 7 10 1023.3 1021.9 0.0
28/01:30am 14.4 10.3 -0.1 37 6.3 ENE 11 13 6 7 1023.2 1021.8 0.0
28/01:00am 14.4 11.1 0.3 38 6.2 E 7 11 4 6 1023.6 1022.2 0.0
28/12:30am 15.2 10.8 0.6 37 6.5 E 13 19 7 10 1023.5 1022.1 0.0
28/12:00am 15.2 12.2 0.6 37 6.5 E 6 7 3 4 1023.7 1022.3 0.0
 
Date/Time
WST
Temp
°C
App
Temp
°C
Dew
Point
°C
Rel
Hum
%
Delta-T
°C
Wind Press
QNH
hPa
Press
MSL
hPa
Rain since
9am
mm
Dir  Spd
km/h
Gust
km/h
Spd
kts
Gust
kts
27/11:30pm 14.5 10.6 1.4 41 5.9 ENE 11 15 6 8 1023.6 1022.2 0.0
27/11:00pm 15.4 12.5 1.2 38 6.4 ENE 6 9 3 5 1024.4 1023.0 0.0
27/10:30pm 15.9 12.0 1.2 37 6.7 E 11 17 6 9 1023.7 1022.3 0.0
27/10:00pm 15.8 11.6 1.9 39 6.4 E 13 20 7 11 1023.0 1021.6 0.0
27/09:30pm 15.1 13.1 2.3 42 5.9 ENE 2 11 1 6 1023.5 1022.1 0.0
27/09:00pm 14.8 12.2 3.3 46 5.4 ENE 6 7 3 4 1023.4 1022.0 0.0
27/08:30pm 14.7 13.2 3.2 46 5.4 CALM 0 0 0 0 1023.6 1022.2 0.0
27/08:00pm 16.8 13.8 2.0 37 6.9 ENE 7 9 4 5 1023.1 1021.7 0.0
27/07:30pm 17.3 13.6 2.1 36 7.1 E 11 13 6 7 1022.9 1021.5 0.0
27/07:00pm 18.2 14.5 2.1 34 7.6 E 11 15 6 8 1022.9 1021.5 0.0
27/06:30pm 19.0 14.9 2.0 32 8.1 E 13 15 7 8 1022.4 1021.0 0.0
27/06:00pm 20.1 15.5 1.5 29 8.8 E 15 20 8 11 1022.0 1020.6 0.0
27/05:30pm 21.3 16.0 1.6 27 9.4 E 19 28 10 15 1021.8 1020.4 0.0
27/05:00pm 22.2 16.9 1.8 26 9.8 E 19 26 10 14 1021.6 1020.1 0.0
27/04:30pm 22.5 16.2 1.5 25 10.1 E 24 35 13 19 1021.4 1019.9 0.0
27/04:00pm 23.0 17.1 1.4 24 10.4 ENE 22 32 12 17 1021.4 1019.9 0.0
27/03:30pm 22.8 16.5 1.8 25 10.2 ENE 24 35 13 19 1021.0 1019.6 0.0
27/03:00pm 23.0 16.3 1.4 24 10.4 ENE 26 33 14 18 1021.1 1019.7 0.0
27/02:30pm 22.6 15.8 1.0 24 10.3 ENE 26 39 14 21 1021.3 1019.8 0.0
27/02:00pm 22.7 16.7 1.1 24 10.3 ENE 22 33 12 18 1021.3 1019.8 0.0
27/01:30pm 21.9 15.0 0.4 24 10.1 ENE 26 37 14 20 1021.7 1020.3 0.0
27/01:00pm 21.3 14.5 0.5 25 9.7 ENE 26 37 14 20 1022.2 1020.8 0.0
27/12:30pm 20.7 13.8 0.0 25 9.6 E 26 37 14 20 1022.7 1021.3 0.0
27/12:00pm 19.9 12.9 -0.7 25 9.3 ENE 26 35 14 19 1023.0 1021.6 0.0
27/11:30am 19.1 11.2 -1.4 25 9.1 ENE 30 43 16 23 1023.3 1021.9 0.0
27/11:00am 18.6 9.7 -2.3 24 9.0 ENE 35 52 19 28 1023.5 1022.1 0.0
27/10:30am 17.9 9.3 -2.4 25 8.7 ENE 33 44 18 24 1023.9 1022.5 0.0
27/10:00am 17.8 10.2 -2.5 25 8.6 ENE 28 43 15 23 1024.2 1022.9 0.0
27/09:30am 16.3 8.3 -2.7 27 8.0 ENE 30 43 16 23 1024.6 1023.2 0.0
27/09:00am 14.7 5.8 -2.2 31 7.0 E 35 48 19 26 1024.2 1022.9 0.0
27/08:43am 14.4 6.1 -1.6 33 6.8 E 32 50 17 27 1024.1 1022.8 0.0
27/08:30am 13.8 5.5 -1.8 34 6.5 E 32 44 17 24 1024.2 1022.9 0.0
27/08:00am 12.5 6.5 -1.8 37 5.9 E 20 30 11 16 1024.1 1022.8 0.0
27/07:30am 11.6 5.7 -1.9 39 5.5 E 19 24 10 13 1023.9 1022.5 0.0
27/07:00am 10.3 6.4 -1.7 43 4.8 ENE 9 15 5 8 1023.6 1022.2 0.0
27/06:30am 9.5 5.1 -2.1 44 4.6 ENE 11 17 6 9 1023.6 1022.2 0.0
27/06:00am 10.1 3.3 -2.2 42 4.9 ESE 24 32 13 17 1023.2 1021.8 0.0
27/05:30am 10.5 2.9 -2.2 41 5.1 ESE 28 35 15 19 1022.7 1021.3 0.0
27/05:00am 10.5 3.7 -2.2 41 5.1 E 24 30 13 16 1022.5 1021.1 0.0
27/04:30am 9.9 4.0 -2.4 42 4.9 E 19 24 10 13 1022.5 1021.1 0.0
27/04:00am 10.0 4.1 -2.6 41 5.0 E 19 22 10 12 1022.5 1021.1 0.0
27/03:30am 10.3 4.2 -2.7 40 5.1 E 20 26 11 14 1022.5 1021.1 0.0
27/03:00am 10.9 5.3 -2.8 38 5.4 E 17 22 9 12 1022.5 1021.1 0.0
27/02:30am 10.7 5.5 -3.0 38 5.4 ENE 15 17 8 9 1022.5 1021.1 0.0
27/02:00am 11.1 5.9 -3.0 37 5.6 ENE 15 19 8 10 1023.0 1021.6 0.0
27/01:30am 11.4 6.2 -3.1 36 5.7 ENE 15 20 8 11 1023.1 1021.7 0.0
27/01:00am 11.4 6.5 -3.1 36 5.7 E 13 19 7 10 1023.3 1021.9 0.0
27/12:30am 11.6 6.3 -3.3 35 5.9 ESE 15 19 8 10 1023.4 1022.0 0.0
27/12:00am 12.8 5.8 -3.5 32 6.5 ESE 24 30 13 16 1023.4 1022.0 0.0
 
Date/Time
WST
Temp
°C
App
Temp
°C
Dew
Point
°C
Rel
Hum
%
Delta-T
°C
Wind Press
QNH
hPa
Press
MSL
hPa
Rain since
9am
mm
Dir  Spd
km/h
Gust
km/h
Spd
kts
Gust
kts
26/11:30pm 12.4 6.4 -3.4 33 6.3 ESE 19 22 10 12 1023.6 1022.2 0.0
26/11:00pm 11.9 7.0 -3.4 34 6.0 ESE 13 15 7 8 1023.9 1022.5 0.0
26/10:30pm 12.4 7.5 -3.0 34 6.2 ESE 13 17 7 9 1023.9 1022.5 0.0
26/10:00pm 12.6 8.5 -3.2 33 6.3 SE 9 13 5 7 1024.0 1022.6 0.0

Other Formats:

Comma delimited format used in spreadsheet applications
http://www.bom.gov.au/fwo/IDW60801/IDW60801.99312.axf

JavaScript Object Notation format (JSON) in row-major order
http://www.bom.gov.au/fwo/IDW60801/IDW60801.99312.json